createdAt,value
2023-02-23T00:01:22.134Z,31.80
2023-02-23T00:03:50.341Z,33.00
2023-02-23T00:06:20.607Z,33.13
2023-02-23T00:08:48.197Z,33.97
2023-02-23T00:11:16.882Z,32.27
2023-02-23T00:13:46.225Z,34.83
2023-02-23T00:16:15.198Z,34.37
2023-02-23T00:18:48.409Z,34.73
2023-02-23T00:21:16.994Z,34.33
2023-02-23T00:23:52.313Z,34.20
2023-02-23T00:26:24.144Z,33.43
2023-02-23T00:28:52.071Z,32.70
2023-02-23T00:31:23.557Z,34.67
2023-02-23T00:33:53.763Z,33.87
2023-02-23T00:36:21.977Z,33.20
2023-02-23T00:38:53.154Z,32.27
2023-02-23T00:41:25.388Z,32.13
2023-02-23T00:43:54.933Z,31.70
2023-02-23T00:46:23.276Z,33.43
2023-02-23T00:48:51.846Z,30.77
2023-02-23T00:51:20.004Z,33.43
2023-02-23T00:53:47.552Z,34.33
2023-02-23T00:56:15.832Z,31.53
2023-02-23T00:58:43.462Z,32.93
2023-02-23T01:01:12.198Z,33.83
2023-02-23T01:03:41.369Z,34.20
2023-02-23T01:06:11.567Z,39.07
2023-02-23T01:08:40.239Z,37.17
2023-02-23T01:11:12.299Z,37.53
2023-02-23T01:13:40.191Z,35.90
2023-02-23T01:16:08.672Z,38.90
2023-02-23T01:18:36.489Z,41.80
2023-02-23T01:21:07.650Z,44.70
2023-02-23T01:23:35.005Z,44.23
2023-02-23T01:26:02.389Z,46.13
2023-02-23T01:28:32.157Z,46.57
2023-02-23T01:31:01.762Z,47.33
2023-02-23T01:33:29.141Z,49.43
2023-02-23T01:36:00.021Z,47.70
2023-02-23T01:38:28.175Z,49.63
2023-02-23T01:40:55.630Z,48.73
2023-02-23T01:43:26.196Z,49.80
2023-02-23T01:45:55.325Z,49.63
2023-02-23T01:48:26.713Z,52.73
2023-02-23T01:50:54.024Z,49.70
2023-02-23T01:53:21.775Z,49.73
2023-02-23T01:55:51.043Z,51.33
2023-02-23T01:58:19.902Z,50.57
2023-02-23T02:00:51.878Z,51.63
2023-02-23T02:03:38.250Z,52.63
2023-02-23T02:06:06.344Z,52.73
2023-02-23T02:08:34.669Z,50.63
2023-02-23T02:11:09.285Z,52.97
2023-02-23T02:13:37.703Z,55.77
2023-02-23T02:16:29.028Z,53.63
2023-02-23T02:19:03.286Z,54.80
2023-02-23T02:21:44.128Z,56.53
2023-02-23T02:24:13.695Z,56.27
2023-02-23T02:26:48.893Z,53.50
2023-02-23T02:29:22.448Z,52.53
2023-02-23T02:31:49.964Z,55.53
2023-02-23T02:34:34.501Z,56.80
2023-02-23T02:37:04.882Z,55.17
2023-02-23T02:39:38.398Z,54.73
2023-02-23T02:42:08.848Z,54.93
2023-02-23T02:44:43.407Z,54.30
2023-02-23T02:47:14.226Z,54.73
2023-02-23T02:49:48.098Z,53.00
2023-02-23T02:52:25.871Z,53.87
2023-02-23T02:55:04.235Z,53.20
2023-02-23T02:57:33.193Z,51.40
2023-02-23T03:00:20.742Z,51.07
2023-02-23T03:03:07.834Z,48.60
2023-02-23T03:05:58.932Z,51.87
2023-02-23T03:09:05.356Z,50.57
2023-02-23T03:11:55.856Z,54.10
2023-02-23T03:14:42.868Z,51.33
2023-02-23T03:17:51.337Z,53.30
2023-02-23T03:20:37.295Z,54.10
2023-02-23T03:23:29.280Z,54.53
2023-02-23T03:26:25.823Z,58.10
2023-02-23T03:29:18.349Z,56.80
2023-02-23T03:32:10.439Z,57.30
2023-02-23T03:35:02.359Z,59.60
2023-02-23T03:37:59.732Z,59.80
2023-02-23T03:40:47.713Z,58.67
2023-02-23T03:43:36.771Z,60.33
2023-02-23T03:46:26.934Z,58.93
2023-02-23T03:49:15.509Z,57.27
2023-02-23T03:52:03.060Z,60.60
2023-02-23T03:54:58.907Z,59.30
2023-02-23T03:57:46.569Z,59.73
2023-02-23T04:00:35.111Z,58.93
2023-02-23T04:03:22.005Z,60.83
2023-02-23T04:06:09.453Z,59.30
2023-02-23T04:08:57.130Z,58.47
2023-02-23T04:11:49.235Z,60.40
2023-02-23T04:14:40.470Z,60.13
2023-02-23T04:17:08.929Z,60.87
2023-02-23T04:19:36.357Z,59.73
2023-02-23T04:22:04.040Z,61.47
2023-02-23T04:24:31.354Z,60.03
2023-02-23T04:26:58.754Z,61.50
2023-02-23T04:29:26.037Z,62.23
2023-02-23T04:31:54.082Z,61.87
2023-02-23T04:34:21.437Z,67.43
2023-02-23T04:36:51.234Z,62.87
2023-02-23T04:39:19.112Z,66.80
2023-02-23T04:41:48.645Z,65.73
2023-02-23T04:44:15.923Z,65.83
2023-02-23T04:46:43.213Z,68.90
2023-02-23T04:49:10.548Z,70.13
2023-02-23T04:51:38.040Z,71.33
2023-02-23T04:54:05.632Z,68.27
2023-02-23T04:56:33.082Z,71.57
2023-02-23T04:59:00.485Z,69.20
2023-02-23T05:01:29.303Z,68.50
2023-02-23T05:03:56.663Z,70.33
2023-02-23T05:06:23.913Z,69.47
2023-02-23T05:08:51.235Z,89.05
2023-02-23T05:11:18.918Z,75.47
2023-02-23T05:13:46.457Z,75.60
2023-02-23T05:16:13.792Z,73.17
2023-02-23T05:18:41.157Z,71.43
2023-02-23T05:21:09.188Z,73.87
2023-02-23T05:23:36.846Z,76.27
2023-02-23T05:26:08.602Z,75.83
2023-02-23T05:28:36.965Z,77.37
2023-02-23T05:31:05.324Z,80.47
2023-02-23T05:33:33.249Z,75.93
2023-02-23T05:36:05.682Z,77.47
2023-02-23T05:38:33.227Z,78.00
2023-02-23T05:41:05.207Z,92.93
2023-02-23T05:43:32.847Z,83.83
2023-02-23T05:46:01.348Z,80.80
2023-02-23T05:48:29.482Z,80.07
2023-02-23T05:51:01.394Z,79.57
2023-02-23T05:53:28.922Z,78.63
2023-02-23T05:55:57.199Z,75.20
2023-02-23T05:58:25.112Z,80.70
2023-02-23T06:00:52.607Z,78.17
2023-02-23T06:03:20.321Z,79.73
2023-02-23T06:05:51.907Z,81.30
2023-02-23T06:08:20.005Z,79.83
2023-02-23T06:10:47.871Z,81.40
2023-02-23T06:13:15.592Z,79.87
2023-02-23T06:15:43.347Z,86.20
2023-02-23T06:18:10.977Z,84.87
2023-02-23T06:20:40.317Z,99.13
2023-02-23T06:23:08.754Z,84.73
2023-02-23T06:25:36.561Z,85.17
2023-02-23T06:28:04.188Z,83.00
2023-02-23T06:30:31.470Z,84.50
2023-02-23T06:32:58.820Z,88.17
2023-02-23T06:35:27.162Z,84.60
2023-02-23T06:37:54.438Z,83.93
2023-02-23T06:40:21.793Z,85.57
2023-02-23T06:42:49.441Z,88.33
2023-02-23T06:45:17.132Z,84.73
2023-02-23T06:47:44.689Z,84.27
2023-02-23T06:50:12.514Z,88.80
2023-02-23T06:52:40.148Z,84.53
2023-02-23T06:55:07.941Z,84.97
2023-02-23T06:57:35.517Z,85.13
2023-02-23T07:00:02.899Z,87.73
2023-02-23T07:02:31.785Z,86.03
2023-02-23T07:04:59.122Z,87.00
2023-02-23T07:07:26.557Z,82.93
2023-02-23T07:09:53.900Z,83.70
2023-02-23T07:12:21.531Z,86.43
2023-02-23T07:14:48.819Z,84.10
2023-02-23T07:17:17.784Z,86.43
2023-02-23T07:19:45.262Z,83.60
2023-02-23T07:22:12.519Z,85.07
2023-02-23T07:24:39.865Z,81.77
2023-02-23T07:27:07.269Z,85.63
2023-02-23T07:29:34.815Z,84.47
2023-02-23T07:32:02.266Z,81.17
2023-02-23T07:34:29.598Z,81.60
2023-02-23T07:36:56.931Z,84.00
2023-02-23T07:39:25.619Z,84.63
2023-02-23T07:41:52.947Z,83.53
2023-02-23T07:44:20.383Z,80.80
2023-02-23T07:46:47.679Z,82.13
2023-02-23T07:49:14.984Z,79.40
2023-02-23T07:51:42.352Z,76.20
2023-02-23T07:54:09.638Z,79.20
2023-02-23T07:56:36.997Z,81.73
2023-02-23T07:59:04.509Z,79.40
2023-02-23T08:01:32.150Z,79.67
2023-02-23T08:03:59.527Z,81.20
2023-02-23T08:06:26.908Z,85.00
2023-02-23T08:08:54.195Z,78.63
2023-02-23T08:11:21.550Z,81.20
2023-02-23T08:13:48.889Z,80.27
2023-02-23T08:16:16.540Z,81.93
2023-02-23T08:18:44.045Z,77.83
2023-02-23T08:21:11.897Z,83.03
2023-02-23T08:23:39.503Z,80.80
2023-02-23T08:26:06.794Z,79.17
2023-02-23T08:28:34.163Z,74.73
2023-02-23T08:31:01.530Z,75.40
2023-02-23T08:33:28.941Z,75.40
2023-02-23T08:35:59.472Z,77.97
2023-02-23T08:38:26.769Z,75.37
2023-02-23T08:40:54.974Z,72.17
2023-02-23T08:43:22.413Z,75.83
2023-02-23T08:45:49.739Z,77.10
2023-02-23T08:48:17.012Z,76.60
2023-02-23T08:50:44.301Z,75.03
2023-02-23T08:53:11.625Z,78.23
2023-02-23T08:55:39.156Z,74.33
2023-02-23T08:58:09.334Z,77.13
2023-02-23T09:00:37.132Z,77.33
2023-02-23T09:03:05.632Z,72.30
2023-02-23T09:05:33.481Z,71.53
2023-02-23T09:08:00.921Z,73.97
2023-02-23T09:10:29.039Z,73.53
2023-02-23T09:12:56.401Z,71.33
2023-02-23T09:15:23.847Z,72.50
2023-02-23T09:17:51.778Z,72.70
2023-02-23T09:20:19.516Z,70.40
2023-02-23T09:22:50.051Z,65.80
2023-02-23T09:25:19.129Z,67.53
2023-02-23T09:27:47.178Z,69.30
2023-02-23T09:30:17.592Z,59.57
2023-02-23T09:32:46.026Z,53.43
2023-02-23T09:35:17.988Z,49.77
2023-02-23T09:37:49.326Z,48.47
2023-02-23T09:40:25.177Z,46.47
2023-02-23T09:43:07.169Z,48.53
2023-02-23T09:45:57.893Z,46.50
2023-02-23T09:48:26.493Z,48.60
2023-02-23T09:50:55.151Z,51.07
2023-02-23T09:53:36.114Z,49.40
2023-02-23T09:56:05.927Z,49.70
2023-02-23T09:58:36.136Z,50.77
2023-02-23T10:01:19.515Z,49.97
2023-02-23T10:03:54.680Z,49.30
2023-02-23T10:06:22.526Z,47.53
2023-02-23T10:08:53.028Z,50.60
2023-02-23T10:11:20.617Z,48.57
2023-02-23T10:13:51.490Z,52.60
2023-02-23T10:16:22.357Z,52.30
2023-02-23T10:18:56.730Z,52.30
2023-02-23T10:21:42.017Z,50.30
2023-02-23T10:24:12.808Z,51.17
2023-02-23T10:26:40.197Z,52.63
2023-02-23T10:29:16.211Z,48.60
2023-02-23T10:31:47.571Z,51.90
2023-02-23T10:34:16.893Z,48.00
2023-02-23T10:36:51.710Z,53.97
2023-02-23T10:39:19.078Z,50.73
2023-02-23T10:41:46.824Z,51.03
2023-02-23T10:44:20.448Z,49.73
2023-02-23T10:46:51.527Z,53.80
2023-02-23T10:49:22.565Z,51.77
2023-02-23T10:51:52.670Z,50.60
2023-02-23T10:54:36.781Z,49.53
2023-02-23T10:57:05.162Z,49.20
2023-02-23T10:59:32.630Z,51.00
2023-02-23T11:02:02.748Z,48.73
2023-02-23T11:04:31.668Z,51.03
2023-02-23T11:07:07.128Z,50.90
2023-02-23T11:09:46.435Z,48.40
2023-02-23T11:12:22.251Z,50.87
2023-02-23T11:14:57.282Z,49.90
2023-02-23T11:17:27.557Z,50.13
2023-02-23T11:19:59.136Z,47.33
2023-02-23T11:22:27.138Z,48.50
2023-02-23T11:24:55.553Z,47.60
2023-02-23T11:27:24.798Z,47.43
2023-02-23T11:29:54.031Z,49.23
2023-02-23T11:32:23.097Z,45.97
2023-02-23T11:35:10.456Z,48.53
2023-02-23T11:37:38.246Z,47.83
2023-02-23T11:40:19.713Z,50.33
2023-02-23T11:42:53.635Z,49.27
2023-02-23T11:45:22.212Z,48.90
2023-02-23T11:47:50.538Z,45.83
2023-02-23T11:50:26.658Z,49.67
2023-02-23T11:53:07.327Z,45.83
2023-02-23T11:55:37.419Z,45.23
2023-02-23T11:58:09.484Z,43.90
2023-02-23T12:00:36.815Z,45.40
2023-02-23T12:03:05.618Z,47.80
2023-02-23T12:05:33.290Z,47.57
2023-02-23T12:08:04.127Z,46.27
2023-02-23T12:10:31.482Z,45.57
2023-02-23T12:13:05.554Z,47.00
2023-02-23T12:15:36.931Z,45.00
2023-02-23T12:18:12.478Z,45.80
2023-02-23T12:20:41.962Z,48.63
2023-02-23T12:23:12.054Z,44.17
2023-02-23T12:25:43.516Z,47.73
2023-02-23T12:28:18.773Z,46.73
2023-02-23T12:30:49.622Z,47.10
2023-02-23T12:33:30.173Z,43.70
2023-02-23T12:36:10.191Z,48.77
2023-02-23T12:38:52.714Z,45.17
2023-02-23T12:41:26.395Z,42.93
2023-02-23T12:43:58.529Z,46.60
2023-02-23T12:46:26.032Z,47.67
2023-02-23T12:48:57.883Z,47.30
2023-02-23T12:51:30.615Z,47.33
2023-02-23T12:53:57.994Z,46.70
2023-02-23T12:56:44.198Z,48.07
2023-02-23T12:59:21.887Z,46.37
2023-02-23T13:02:09.475Z,47.67
2023-02-23T13:04:55.618Z,47.83
2023-02-23T13:07:25.047Z,45.50
2023-02-23T13:10:11.087Z,49.93
2023-02-23T13:12:48.770Z,49.30
2023-02-23T13:15:21.377Z,46.27
2023-02-23T13:18:06.298Z,49.33
2023-02-23T13:20:38.134Z,47.57
2023-02-23T13:23:11.373Z,43.23
2023-02-23T13:25:45.502Z,45.93
2023-02-23T13:28:28.397Z,47.77
2023-02-23T13:30:56.661Z,46.13
2023-02-23T13:33:43.275Z,43.80
2023-02-23T13:36:13.050Z,48.17
2023-02-23T13:39:01.308Z,46.37
2023-02-23T13:41:37.619Z,46.90
2023-02-23T13:44:11.266Z,45.73
2023-02-23T13:47:04.828Z,45.00
2023-02-23T13:49:39.315Z,44.13
2023-02-23T13:52:14.303Z,38.03
2023-02-23T13:54:51.898Z,40.97
2023-02-23T13:57:22.626Z,40.57
2023-02-23T13:59:50.966Z,35.73
2023-02-23T14:02:26.003Z,38.70
2023-02-23T14:04:53.607Z,33.13
2023-02-23T14:07:26.659Z,34.20
2023-02-23T14:09:59.340Z,30.13
2023-02-23T14:12:38.765Z,28.77
2023-02-23T14:15:28.302Z,27.33
2023-02-23T14:18:00.174Z,26.90
2023-02-23T14:20:45.515Z,26.20
2023-02-23T14:23:18.450Z,29.47
2023-02-23T14:25:51.861Z,29.10
2023-02-23T14:28:27.575Z,29.70
2023-02-23T14:31:16.751Z,27.57
2023-02-23T14:33:48.574Z,27.37
2023-02-23T14:36:22.161Z,27.00
2023-02-23T14:39:00.356Z,26.83
2023-02-23T14:41:30.259Z,27.00
2023-02-23T14:44:10.622Z,27.10
2023-02-23T14:46:50.093Z,27.67
2023-02-23T14:49:21.670Z,24.67
2023-02-23T14:51:51.752Z,28.53
2023-02-23T14:54:31.859Z,23.60
2023-02-23T14:57:01.460Z,20.13
2023-02-23T14:59:40.207Z,22.80
2023-02-23T15:02:12.508Z,23.37
2023-02-23T15:04:40.133Z,21.67
2023-02-23T15:07:07.853Z,24.07
2023-02-23T15:09:37.296Z,23.37
2023-02-23T15:12:13.544Z,24.27
2023-02-23T15:14:41.227Z,22.63
2023-02-23T15:17:13.376Z,24.23
2023-02-23T15:19:40.917Z,23.70
2023-02-23T15:22:08.434Z,23.40
2023-02-23T15:24:48.392Z,23.30
2023-02-23T15:27:20.392Z,20.70
2023-02-23T15:29:47.873Z,20.90
2023-02-23T15:32:24.911Z,23.23
2023-02-23T15:34:53.419Z,24.30
2023-02-23T15:37:41.118Z,24.07
2023-02-23T15:40:12.526Z,24.40
2023-02-23T15:42:41.883Z,22.00
2023-02-23T15:45:36.899Z,22.77
2023-02-23T15:48:08.901Z,21.17
2023-02-23T15:50:41.148Z,20.77
2023-02-23T15:53:13.467Z,22.93
2023-02-23T15:55:42.932Z,23.53
2023-02-23T15:58:25.204Z,22.43
2023-02-23T16:00:57.392Z,23.47
2023-02-23T16:03:26.723Z,23.97
2023-02-23T16:06:02.181Z,25.57
2023-02-23T16:08:29.773Z,22.43
2023-02-23T16:11:19.128Z,22.73
2023-02-23T16:13:47.378Z,22.33
2023-02-23T16:16:20.681Z,23.37
2023-02-23T16:18:52.213Z,26.43
2023-02-23T16:21:22.248Z,24.13
2023-02-23T16:23:52.998Z,21.03
2023-02-23T16:26:26.195Z,23.47
2023-02-23T16:29:01.648Z,22.57
2023-02-23T16:31:58.200Z,22.03
2023-02-23T16:34:26.155Z,23.10
2023-02-23T16:36:58.981Z,23.50
2023-02-23T16:39:30.562Z,22.07
2023-02-23T16:41:58.884Z,21.47
2023-02-23T16:44:34.288Z,21.47
2023-02-23T16:47:06.307Z,21.33
2023-02-23T16:49:33.824Z,21.77
2023-02-23T16:52:01.822Z,22.37
2023-02-23T16:54:29.367Z,23.07
2023-02-23T16:56:57.044Z,24.17
2023-02-23T16:59:24.804Z,22.97
2023-02-23T17:01:52.174Z,23.40
2023-02-23T17:04:20.346Z,22.30
2023-02-23T17:06:57.666Z,24.93
2023-02-23T17:09:25.630Z,20.80
2023-02-23T17:11:53.053Z,22.13
2023-02-23T17:14:31.838Z,23.87
2023-02-23T17:17:02.358Z,25.50
2023-02-23T17:19:29.818Z,25.43
2023-02-23T17:21:57.412Z,20.70
2023-02-23T17:24:26.188Z,23.57
2023-02-23T17:26:54.238Z,28.57
2023-02-23T17:29:21.725Z,27.03
2023-02-23T17:31:50.045Z,28.73
2023-02-23T17:34:17.774Z,28.77
2023-02-23T17:36:45.131Z,32.30
2023-02-23T17:39:14.309Z,30.40
2023-02-23T17:41:41.754Z,29.90
2023-02-23T17:44:09.643Z,30.33
2023-02-23T17:46:37.289Z,32.40
2023-02-23T17:49:05.074Z,31.43
2023-02-23T17:51:32.442Z,29.87
2023-02-23T17:53:59.862Z,32.60
2023-02-23T17:56:28.228Z,31.73
2023-02-23T17:58:55.772Z,33.53
2023-02-23T18:01:23.620Z,33.63
2023-02-23T18:03:51.243Z,34.53
2023-02-23T18:06:19.780Z,34.63
2023-02-23T18:08:47.320Z,34.20
2023-02-23T18:11:18.483Z,35.60
2023-02-23T18:13:47.886Z,34.67
2023-02-23T18:16:16.140Z,40.90
2023-02-23T18:18:51.747Z,34.83
2023-02-23T18:21:23.340Z,33.27
2023-02-23T18:23:51.436Z,34.40
2023-02-23T18:26:20.163Z,35.97
2023-02-23T18:28:47.790Z,35.57
2023-02-23T18:31:23.636Z,35.97
2023-02-23T18:33:52.945Z,35.73
2023-02-23T18:36:22.604Z,32.83
2023-02-23T18:38:50.589Z,36.90
2023-02-23T18:41:18.133Z,33.10
2023-02-23T18:43:45.665Z,34.93
2023-02-23T18:46:14.238Z,33.60
2023-02-23T18:48:42.034Z,35.40
2023-02-23T18:51:14.547Z,32.40
2023-02-23T18:53:42.312Z,33.93
2023-02-23T18:56:12.296Z,34.50
2023-02-23T18:58:39.732Z,33.87
2023-02-23T19:01:18.105Z,37.90
2023-02-23T19:03:45.697Z,33.87
2023-02-23T19:06:15.925Z,38.37
2023-02-23T19:08:43.721Z,36.87
2023-02-23T19:11:11.642Z,35.73
2023-02-23T19:13:39.112Z,33.40
2023-02-23T19:16:07.000Z,15.87
2023-02-23T19:18:38.269Z,14.50
2023-02-23T19:21:06.432Z,13.20
2023-02-23T19:23:33.817Z,9.80
2023-02-23T19:26:03.279Z,7.07
2023-02-23T19:28:30.722Z,6.93
2023-02-23T19:31:02.015Z,8.43
2023-02-23T19:33:29.709Z,7.47
2023-02-23T19:35:57.180Z,8.33
2023-02-23T19:38:24.624Z,8.30
2023-02-23T19:40:52.171Z,9.30
2023-02-23T19:43:19.562Z,9.43
2023-02-23T19:45:48.291Z,8.57
2023-02-23T19:48:16.322Z,10.10
2023-02-23T19:50:51.675Z,9.13
2023-02-23T19:53:19.117Z,11.43
2023-02-23T19:55:47.358Z,7.00
2023-02-23T19:58:15.499Z,8.03
2023-02-23T20:00:42.896Z,8.27
2023-02-23T20:03:10.607Z,7.00
2023-02-23T20:05:42.279Z,8.13
2023-02-23T20:08:10.579Z,7.73
2023-02-23T20:10:42.598Z,7.63
2023-02-23T20:13:10.697Z,8.43
2023-02-23T20:15:38.192Z,8.00
2023-02-23T20:18:07.245Z,8.60
2023-02-23T20:20:39.922Z,8.80
2023-02-23T20:23:08.810Z,8.27
2023-02-23T20:25:36.921Z,7.43
2023-02-23T20:28:07.852Z,8.80
2023-02-23T20:30:35.405Z,9.90
2023-02-23T20:33:10.671Z,10.57
2023-02-23T20:35:38.517Z,9.00
2023-02-23T20:38:05.864Z,9.53
2023-02-23T20:40:33.991Z,9.30
2023-02-23T20:43:01.371Z,10.43
2023-02-23T20:45:28.913Z,9.43
2023-02-23T20:47:57.473Z,9.47
2023-02-23T20:50:28.497Z,11.80
2023-02-23T20:52:56.104Z,10.70
2023-02-23T20:55:26.425Z,10.33
2023-02-23T20:57:54.526Z,7.93
2023-02-23T21:00:29.812Z,9.60
2023-02-23T21:02:57.324Z,8.07
2023-02-23T21:05:25.441Z,7.90
2023-02-23T21:07:53.310Z,8.70
2023-02-23T21:10:20.751Z,9.88
2023-02-23T21:12:48.078Z,8.43
2023-02-23T21:15:15.530Z,9.67
2023-02-23T21:17:43.023Z,7.57
2023-02-23T21:20:12.929Z,7.07
2023-02-23T21:22:40.842Z,7.33
2023-02-23T21:25:10.804Z,8.37
2023-02-23T21:27:38.749Z,6.30
2023-02-23T21:30:07.401Z,9.10
2023-02-23T21:32:41.294Z,5.80
2023-02-23T21:35:10.351Z,6.07
2023-02-23T21:37:38.597Z,6.90
2023-02-23T21:40:12.674Z,7.73
2023-02-23T21:42:40.908Z,5.73
2023-02-23T21:45:09.191Z,7.27
2023-02-23T21:47:37.477Z,7.53
2023-02-23T21:50:05.702Z,4.87
2023-02-23T21:52:33.902Z,6.57
2023-02-23T21:55:05.662Z,5.37
2023-02-23T21:57:35.473Z,5.93
2023-02-23T22:00:02.803Z,6.17
2023-02-23T22:02:41.221Z,6.00
2023-02-23T22:05:09.598Z,6.67
2023-02-23T22:07:37.107Z,5.53
2023-02-23T22:10:05.137Z,7.63
2023-02-23T22:12:32.670Z,5.77
2023-02-23T22:15:03.006Z,7.20
2023-02-23T22:17:32.799Z,7.27
2023-02-23T22:20:00.290Z,6.77
2023-02-23T22:22:27.999Z,8.60
2023-02-23T22:24:55.377Z,8.10
2023-02-23T22:27:22.683Z,8.03
2023-02-23T22:29:49.994Z,6.33
2023-02-23T22:32:17.657Z,6.47
2023-02-23T22:34:45.433Z,5.60
2023-02-23T22:37:12.675Z,7.03
2023-02-23T22:39:42.961Z,6.87
2023-02-23T22:42:12.647Z,6.20
2023-02-23T22:44:40.141Z,5.80
2023-02-23T22:47:07.686Z,7.13
2023-02-23T22:49:35.123Z,6.00
2023-02-23T22:52:02.484Z,10.17
2023-02-23T22:54:31.389Z,8.00
2023-02-23T22:56:59.191Z,6.30
2023-02-23T22:59:28.867Z,6.80
2023-02-23T23:01:56.445Z,6.90
2023-02-23T23:04:24.314Z,7.83
2023-02-23T23:06:52.301Z,6.90
2023-02-23T23:09:21.126Z,6.20
2023-02-23T23:11:51.310Z,6.10
2023-02-23T23:14:23.145Z,7.00
2023-02-23T23:16:50.623Z,6.93
2023-02-23T23:19:23.582Z,8.93
2023-02-23T23:22:00.350Z,7.47
2023-02-23T23:24:27.722Z,7.70
2023-02-23T23:26:55.641Z,6.73
2023-02-23T23:29:25.685Z,6.40
2023-02-23T23:31:53.750Z,7.40
2023-02-23T23:34:21.906Z,8.03
2023-02-23T23:36:50.044Z,7.43
2023-02-23T23:39:18.281Z,5.87
2023-02-23T23:41:47.851Z,6.53
2023-02-23T23:44:19.528Z,6.30
2023-02-23T23:46:47.557Z,6.47
2023-02-23T23:49:16.784Z,5.10
2023-02-23T23:51:45.526Z,7.17
2023-02-23T23:54:14.564Z,7.03
2023-02-23T23:56:43.594Z,7.77
2023-02-23T23:59:16.361Z,7.03
